PROFILE

 METAR AND TAF INFORMATION
ADDS - METARS form results

(0845 UTC 18 May 2022)
http://aviationweather.gov/metar/data/
 
EFRO 180820Z 35011KT 310V020 9999 FEW015 SCT035 FEW040TCU 06/M03 Q1015
EFRO 180750Z 34012KT 300V010 9999 SCT035 06/M03 Q1015
TAF EFRO 180831Z 1809/1909 34010KT 9999 SCT040 TEMPO 1809/1812 FEW040TCU PROB30 1809/1812 6000 -SHSNRA 

 AIRPORT MAP

 RUNWAY INFORMATION
Runway 03 Runway length 9849 ft Runway width 197 ft
Runway elevation 633 ft Runway displaced threshold 0 ft Runway heading 37
Runway 21 Runway length 9849 ft Runway width 197 ft
Runway elevation 609 ft Runway displaced threshold 0 ft Runway heading 217

 AIRPORT FREQUENCIES
Type APP Name APP Frequency 125.8 MHZ
Type ATIS Name ATIS Frequency 117.7 MHZ
Type GND Name GND Frequency 118.525 MHZ
Type PMSV Name PMSV METRO Frequency 125.1 MHZ
Type TWR Name TWR Frequency 118.7 MHZ

 AIRPORT NEAR NAVIGATION AIDS
Type NDB Name Papa-Alfa Frequency 377 KHZ
Type VOR-DME Name Rovani Frequency 117700 KHZ
Type NDB Name Toramo Frequency 416 KHZ